Time,TemperatureF,DewpointF,PressureIn,WindDirection,WindDirectionDegrees,WindSpeedMPH,WindSpeedGustMPH,Humidity,HourlyPrecipIn,Conditions,Clouds,dailyrainin,SoftwareType,DateUTC
2013-06-18 00:13:00,55.8,51.0,29.96,ENE,57,0.0,-999.0,83,-99.99,,,0.00,weatherlink.com 1.10,2013-06-17 23:13:00,
2013-06-18 00:28:00,55.5,51.0,29.96,ENE,57,0.0,-999.0,84,-99.99,,,0.00,weatherlink.com 1.10,2013-06-17 23:28:00,
2013-06-18 00:43:00,55.3,51.0,29.95,ENE,57,0.0,-999.0,85,-99.99,,,0.00,weatherlink.com 1.10,2013-06-17 23:43:00,
2013-06-18 00:58:00,55.0,51.0,29.95,ENE,57,0.0,-999.0,85,-99.99,,,0.00,weatherlink.com 1.10,2013-06-17 23:58:00,
2013-06-18 01:13:00,54.8,51.0,29.95,ENE,57,0.0,-999.0,86,-99.99,,,0.00,weatherlink.com 1.10,2013-06-18 00:13:00,
2013-06-18 01:28:00,54.6,51.0,29.95,ENE,57,0.0,-999.0,87,-99.99,,,0.00,weatherlink.com 1.10,2013-06-18 00:28:00,
2013-06-18 01:43:00,54.3,51.0,29.95,ENE,57,0.0,-999.0,87,-99.99,,,0.00,weatherlink.com 1.10,2013-06-18 00:43:00,
2013-06-18 01:59:00,53.8,50.0,29.94,ENE,57,0.0,-999.0,87,-99.99,,,0.00,weatherlink.com 1.10,2013-06-18 00:59:00,
2013-06-18 02:14:00,53.3,50.0,29.94,ENE,57,0.0,-999.0,88,-99.99,,,0.00,weatherlink.com 1.10,2013-06-18 01:14:00,
2013-06-18 02:29:00,52.8,50.0,29.95,ENE,57,0.0,-999.0,89,-99.99,,,0.00,weatherlink.com 1.10,2013-06-18 01:29:00,
2013-06-18 02:44:00,52.6,50.0,29.95,ENE,57,0.0,-999.0,89,-99.99,,,0.00,weatherlink.com 1.10,2013-06-18 01:44:00,
2013-06-18 02:59:00,52.4,50.0,29.94,ENE,57,0.0,-999.0,90,-99.99,,,0.00,weatherlink.com 1.10,2013-06-18 01:59:00,
2013-06-18 03:14:00,52.3,50.0,29.94,ENE,57,0.0,-999.0,90,-99.99,,,0.00,weatherlink.com 1.10,2013-06-18 02:14:00,
2013-06-18 03:29:00,51.9,49.0,29.94,ENE,57,0.0,-999.0,90,-99.99,,,0.00,weatherlink.com 1.10,2013-06-18 02:29:00,
2013-06-18 03:44:00,51.7,49.0,29.93,ENE,57,0.0,-999.0,90,-99.99,,,0.00,weatherlink.com 1.10,2013-06-18 02:44:00,
2013-06-18 03:59:00,51.4,49.0,29.93,ENE,57,0.0,-999.0,91,-99.99,,,0.00,weatherlink.com 1.10,2013-06-18 02:59:00,
2013-06-18 04:14:00,51.2,49.0,29.93,ENE,57,0.0,-999.0,91,-99.99,,,0.00,weatherlink.com 1.10,2013-06-18 03:14:00,
2013-06-18 04:29:00,51.0,49.0,29.93,NNE,28,0.0,-999.0,91,-99.99,,,0.00,weatherlink.com 1.10,2013-06-18 03:29:00,
2013-06-18 04:44:00,50.8,48.0,29.92,NNE,28,0.0,-999.0,91,-99.99,,,0.00,weatherlink.com 1.10,2013-06-18 03:44:00,
2013-06-18 04:59:00,50.5,48.0,29.91,NNE,28,0.0,-999.0,91,-99.99,,,0.00,weatherlink.com 1.10,2013-06-18 03:59:00,
2013-06-18 05:14:00,50.4,48.0,29.92,NNE,28,0.0,-999.0,91,-99.99,,,0.00,weatherlink.com 1.10,2013-06-18 04:14:00,
2013-06-18 05:29:00,50.2,48.0,29.92,NNE,28,0.0,-999.0,92,-99.99,,,0.00,weatherlink.com 1.10,2013-06-18 04:29:00,
2013-06-18 05:44:00,50.4,48.0,29.92,NNE,28,0.0,-999.0,92,-99.99,,,0.00,weatherlink.com 1.10,2013-06-18 04:44:00,
2013-06-18 05:59:00,50.8,49.0,29.92,WNW,300,0.0,-999.0,92,-99.99,,,0.00,weatherlink.com 1.10,2013-06-18 04:59:00,
2013-06-18 06:14:00,51.1,49.0,29.91,WNW,294,0.0,-999.0,92,-99.99,,,0.00,weatherlink.com 1.10,2013-06-18 05:14:00,
2013-06-18 06:29:00,51.6,49.0,29.91,WNW,292,0.0,-999.0,92,-99.99,,,0.00,weatherlink.com 1.10,2013-06-18 05:29:00,
2013-06-18 06:44:00,52.2,50.0,29.92,West,261,0.0,-999.0,92,-99.99,,,0.00,weatherlink.com 1.10,2013-06-18 05:44:00,
2013-06-18 06:59:00,52.7,50.0,29.92,West,263,0.0,-999.0,91,-99.99,,,0.00,weatherlink.com 1.10,2013-06-18 05:59:00,
2013-06-18 07:14:00,53.3,51.0,29.92,West,274,0.0,-999.0,91,-99.99,,,0.00,weatherlink.com 1.10,2013-06-18 06:14:00,
2013-06-18 07:29:00,53.4,50.0,29.93,WNW,283,0.0,-999.0,89,-99.99,,,0.00,weatherlink.com 1.10,2013-06-18 06:29:00,
2013-06-18 07:44:00,53.7,51.0,29.93,West,273,0.0,-999.0,89,-99.99,,,0.00,weatherlink.com 1.10,2013-06-18 06:44:00,
2013-06-18 07:59:00,53.5,50.0,29.93,WNW,299,0.0,-999.0,89,-99.99,,,0.00,weatherlink.com 1.10,2013-06-18 06:59:00,
2013-06-18 08:14:00,53.7,51.0,29.93,NW,310,0.0,-999.0,89,-99.99,,,0.00,weatherlink.com 1.10,2013-06-18 07:14:00,
2013-06-18 08:29:00,54.5,51.0,29.93,West,271,0.0,-999.0,89,-99.99,,,0.00,weatherlink.com 1.10,2013-06-18 07:29:00,
2013-06-18 08:44:00,55.8,52.0,29.93,WNW,296,0.0,-999.0,86,-99.99,,,0.00,weatherlink.com 1.10,2013-06-18 07:44:00,
2013-06-18 08:59:00,57.1,52.0,29.93,North,355,0.0,-999.0,84,-99.99,,,0.00,weatherlink.com 1.10,2013-06-18 07:59:00,
2013-06-18 09:14:00,57.7,52.0,29.93,NW,315,0.0,-999.0,82,-99.99,,,0.00,weatherlink.com 1.10,2013-06-18 08:14:00,
2013-06-18 09:29:00,58.5,53.0,29.92,NW,309,0.0,-999.0,82,-99.99,,,0.00,weatherlink.com 1.10,2013-06-18 08:29:00,
2013-06-18 09:44:00,59.7,53.0,29.92,NW,309,0.0,-999.0,79,-99.99,,,0.00,weatherlink.com 1.10,2013-06-18 08:44:00,
2013-06-18 09:59:00,60.9,53.0,29.91,NW,309,0.0,-999.0,75,-99.99,,,0.00,weatherlink.com 1.10,2013-06-18 08:59:00,
2013-06-18 10:14:00,61.7,53.0,29.91,WNW,301,0.0,-999.0,73,-99.99,,,0.00,weatherlink.com 1.10,2013-06-18 09:14:00,
2013-06-18 10:29:00,62.9,52.0,29.91,WSW,242,0.0,-999.0,68,-99.99,,,0.00,weatherlink.com 1.10,2013-06-18 09:29:00,
2013-06-18 10:44:00,63.1,53.0,29.91,WNW,297,0.0,-999.0,70,-99.99,,,0.00,weatherlink.com 1.10,2013-06-18 09:44:00,
2013-06-18 10:59:00,63.1,54.0,29.91,WNW,303,0.0,-999.0,71,-99.99,,,0.00,weatherlink.com 1.10,2013-06-18 09:59:00,
2013-06-18 11:14:00,62.8,55.0,29.91,NW,321,0.0,-999.0,75,-99.99,,,0.00,weatherlink.com 1.10,2013-06-18 10:14:00,
2013-06-18 11:29:00,62.8,54.0,29.91,NW,313,0.0,-999.0,73,-99.99,,,0.00,weatherlink.com 1.10,2013-06-18 10:29:00,
2013-06-18 11:44:00,63.5,54.0,29.91,West,259,0.0,-999.0,72,-99.99,,,0.00,weatherlink.com 1.10,2013-06-18 10:44:00,
2013-06-18 11:59:00,63.7,55.0,29.90,North,355,0.0,-999.0,72,-99.99,,,0.00,weatherlink.com 1.10,2013-06-18 10:59:00,
2013-06-18 12:14:00,63.5,54.0,29.91,NW,306,0.0,-999.0,72,-99.99,,,0.00,weatherlink.com 1.10,2013-06-18 11:14:00,
2013-06-18 12:29:00,63.6,54.0,29.91,West,265,0.0,-999.0,72,-99.99,,,0.00,weatherlink.com 1.10,2013-06-18 11:29:00,
2013-06-18 12:44:00,63.8,54.0,29.91,WNW,302,0.0,-999.0,71,-99.99,,,0.00,weatherlink.com 1.10,2013-06-18 11:44:00,
2013-06-18 12:59:00,64.5,54.0,29.92,West,271,0.0,-999.0,69,-99.99,,,0.00,weatherlink.com 1.10,2013-06-18 11:59:00,
2013-06-18 13:14:00,64.9,53.0,29.91,NW,304,0.0,-999.0,65,-99.99,,,0.00,weatherlink.com 1.10,2013-06-18 12:14:00,
2013-06-18 13:29:00,66.0,54.0,29.91,NNE,25,0.0,-999.0,65,-99.99,,,0.00,weatherlink.com 1.10,2013-06-18 12:29:00,
2013-06-18 13:44:00,67.5,54.0,29.91,WSW,248,0.0,-999.0,63,-99.99,,,0.00,weatherlink.com 1.10,2013-06-18 12:44:00,
2013-06-18 13:59:00,67.5,54.0,29.91,West,263,0.0,-999.0,63,-99.99,,,0.00,weatherlink.com 1.10,2013-06-18 12:59:00,
2013-06-18 14:14:00,68.5,54.0,29.90,NNW,331,0.0,-999.0,61,-99.99,,,0.00,weatherlink.com 1.10,2013-06-18 13:14:00,
2013-06-18 14:29:00,69.3,53.0,29.90,NNW,330,0.0,-999.0,57,-99.99,,,0.00,weatherlink.com 1.10,2013-06-18 13:29:00,
2013-06-18 14:44:00,69.5,53.0,29.90,NNW,334,0.0,-999.0,57,-99.99,,,0.00,weatherlink.com 1.10,2013-06-18 13:44:00,
2013-06-18 15:00:00,70.1,54.0,29.90,SSW,205,0.0,-999.0,56,-99.99,,,0.00,weatherlink.com 1.10,2013-06-18 14:00:00,
2013-06-18 15:15:00,70.5,56.0,29.90,East,101,0.0,-999.0,61,-99.99,,,0.00,weatherlink.com 1.10,2013-06-18 14:15:00,
2013-06-18 15:30:00,71.3,55.0,29.91,ESE,102,0.0,-999.0,57,-99.99,,,0.00,weatherlink.com 1.10,2013-06-18 14:30:00,
2013-06-18 15:45:00,70.2,55.0,29.91,ESE,104,0.0,-999.0,58,-99.99,,,0.00,weatherlink.com 1.10,2013-06-18 14:45:00,
2013-06-18 16:00:00,69.8,55.0,29.90,ESE,108,0.0,-999.0,59,-99.99,,,0.00,weatherlink.com 1.10,2013-06-18 15:00:00,
2013-06-18 16:15:00,69.6,55.0,29.90,ESE,105,0.0,-999.0,60,-99.99,,,0.00,weatherlink.com 1.10,2013-06-18 15:15:00,
2013-06-18 16:30:00,70.2,55.0,29.91,East,84,0.0,-999.0,59,-99.99,,,0.00,weatherlink.com 1.10,2013-06-18 15:30:00,
2013-06-18 16:45:00,70.0,55.0,29.90,East,83,0.0,-999.0,59,-99.99,,,0.00,weatherlink.com 1.10,2013-06-18 15:45:00,
2013-06-18 17:00:00,70.5,55.0,29.90,ESE,107,0.0,-999.0,59,-99.99,,,0.00,weatherlink.com 1.10,2013-06-18 16:00:00,
2013-06-18 17:15:00,70.7,55.0,29.90,ESE,103,0.0,-999.0,58,-99.99,,,0.00,weatherlink.com 1.10,2013-06-18 16:15:00,
2013-06-18 17:30:00,69.6,55.0,29.90,ESE,105,0.0,-999.0,60,-99.99,,,0.00,weatherlink.com 1.10,2013-06-18 16:30:00,
2013-06-18 17:45:00,69.4,55.0,29.89,ESE,103,0.0,-999.0,61,-99.99,,,0.00,weatherlink.com 1.10,2013-06-18 16:45:00,
2013-06-18 18:00:00,69.1,55.0,29.89,East,96,0.0,-999.0,61,-99.99,,,0.00,weatherlink.com 1.10,2013-06-18 17:00:00,
2013-06-18 18:15:00,69.6,55.0,29.90,East,98,0.0,-999.0,61,-99.99,,,0.00,weatherlink.com 1.10,2013-06-18 17:15:00,
2013-06-18 18:30:00,69.8,55.0,29.89,East,90,0.0,-999.0,60,-99.99,,,0.00,weatherlink.com 1.10,2013-06-18 17:30:00,
2013-06-18 18:45:00,69.8,55.0,29.89,ESE,107,0.0,-999.0,60,-99.99,,,0.00,weatherlink.com 1.10,2013-06-18 17:45:00,
2013-06-18 19:00:00,69.4,55.0,29.89,ESE,107,0.0,-999.0,61,-99.99,,,0.00,weatherlink.com 1.10,2013-06-18 18:00:00,
2013-06-18 19:15:00,68.9,55.0,29.90,East,88,0.0,-999.0,61,-99.99,,,0.00,weatherlink.com 1.10,2013-06-18 18:15:00,
2013-06-18 19:30:00,68.1,54.0,29.90,East,94,0.0,-999.0,62,-99.99,,,0.00,weatherlink.com 1.10,2013-06-18 18:30:00,
2013-06-18 19:45:00,68.1,55.0,29.90,East,94,0.0,-999.0,63,-99.99,,,0.00,weatherlink.com 1.10,2013-06-18 18:45:00,
2013-06-18 20:00:00,68.6,55.0,29.90,East,95,0.0,-999.0,63,-99.99,,,0.00,weatherlink.com 1.10,2013-06-18 19:00:00,
2013-06-18 20:15:00,69.2,56.0,29.90,East,94,0.0,-999.0,63,-99.99,,,0.00,weatherlink.com 1.10,2013-06-18 19:15:00,
2013-06-18 20:30:00,69.4,55.0,29.91,East,94,0.0,-999.0,61,-99.99,,,0.00,weatherlink.com 1.10,2013-06-18 19:30:00,
2013-06-18 20:45:00,69.1,55.0,29.91,East,95,0.0,-999.0,62,-99.99,,,0.00,weatherlink.com 1.10,2013-06-18 19:45:00,
2013-06-18 21:00:00,68.9,55.0,29.92,East,95,0.0,-999.0,62,-99.99,,,0.00,weatherlink.com 1.10,2013-06-18 20:00:00,
2013-06-18 21:15:00,67.3,55.0,29.92,NW,309,0.0,-999.0,64,-99.99,,,0.00,weatherlink.com 1.10,2013-06-18 20:15:00,
2013-06-18 21:30:00,66.4,55.0,29.92,West,276,0.0,-999.0,68,-99.99,,,0.00,weatherlink.com 1.10,2013-06-18 20:30:00,
2013-06-18 21:45:00,65.4,56.0,29.93,NW,306,0.0,-999.0,71,-99.99,,,0.00,weatherlink.com 1.10,2013-06-18 20:45:00,
2013-06-18 22:00:00,64.4,55.0,29.94,WNW,288,0.0,-999.0,72,-99.99,,,0.00,weatherlink.com 1.10,2013-06-18 21:00:00,
2013-06-18 22:15:00,63.6,55.0,29.94,NW,309,0.0,-999.0,73,-99.99,,,0.00,weatherlink.com 1.10,2013-06-18 21:15:00,
2013-06-18 22:30:00,62.9,55.0,29.94,WNW,302,0.0,-999.0,74,-99.99,,,0.00,weatherlink.com 1.10,2013-06-18 21:30:00,
2013-06-18 22:45:00,62.7,55.0,29.94,NW,309,0.0,-999.0,75,-99.99,,,0.00,weatherlink.com 1.10,2013-06-18 21:45:00,
2013-06-18 23:00:00,62.4,54.0,29.94,NW,323,0.0,-999.0,75,-99.99,,,0.00,weatherlink.com 1.10,2013-06-18 22:00:00,
2013-06-18 23:15:00,61.9,54.0,29.94,NW,309,0.0,-999.0,76,-99.99,,,0.00,weatherlink.com 1.10,2013-06-18 22:15:00,
2013-06-18 23:30:00,61.3,54.0,29.94,NW,318,0.0,-999.0,77,-99.99,,,0.00,weatherlink.com 1.10,2013-06-18 22:30:00,
2013-06-18 23:45:00,60.7,53.0,29.94,WNW,303,0.0,-999.0,77,-99.99,,,0.00,weatherlink.com 1.10,2013-06-18 22:45:00,